sensor_id;sensor_type;location;lat;lon;timestamp;P1;durP1;ratioP1;P2;durP2;ratioP2
28613;SDS011;15806;53.548;9.964;2024-02-28T00:01:05;35.63;;;13.77;;
28613;SDS011;15806;53.548;9.964;2024-02-28T00:02:46;39.10;;;13.83;;
28613;SDS011;15806;53.548;9.964;2024-02-28T00:04:26;40.30;;;14.93;;
28613;SDS011;15806;53.548;9.964;2024-02-28T00:06:07;38.53;;;15.10;;
28613;SDS011;15806;53.548;9.964;2024-02-28T00:07:47;41.83;;;14.43;;
28613;SDS011;15806;53.548;9.964;2024-02-28T00:09:28;41.47;;;15.40;;
28613;SDS011;15806;53.548;9.964;2024-02-28T00:11:08;43.10;;;15.37;;
28613;SDS011;15806;53.548;9.964;2024-02-28T00:12:49;38.27;;;14.07;;
28613;SDS011;15806;53.548;9.964;2024-02-28T00:14:29;39.97;;;14.40;;
28613;SDS011;15806;53.548;9.964;2024-02-28T00:16:10;38.33;;;14.47;;
28613;SDS011;15806;53.548;9.964;2024-02-28T00:17:51;36.87;;;13.83;;
28613;SDS011;15806;53.548;9.964;2024-02-28T00:19:32;38.08;;;13.90;;
28613;SDS011;15806;53.548;9.964;2024-02-28T00:21:13;37.87;;;13.83;;
28613;SDS011;15806;53.548;9.964;2024-02-28T00:22:53;38.30;;;13.80;;
28613;SDS011;15806;53.548;9.964;2024-02-28T00:24:34;43.73;;;14.60;;
28613;SDS011;15806;53.548;9.964;2024-02-28T00:26:14;37.10;;;14.27;;
28613;SDS011;15806;53.548;9.964;2024-02-28T00:27:55;41.53;;;15.27;;
28613;SDS011;15806;53.548;9.964;2024-02-28T00:29:35;40.03;;;15.00;;
28613;SDS011;15806;53.548;9.964;2024-02-28T00:31:16;38.93;;;13.90;;
28613;SDS011;15806;53.548;9.964;2024-02-28T00:32:56;37.23;;;14.53;;
28613;SDS011;15806;53.548;9.964;2024-02-28T00:34:37;39.63;;;14.57;;
28613;SDS011;15806;53.548;9.964;2024-02-28T00:36:18;44.53;;;17.07;;
28613;SDS011;15806;53.548;9.964;2024-02-28T00:37:59;40.40;;;15.00;;
28613;SDS011;15806;53.548;9.964;2024-02-28T00:39:39;43.73;;;15.43;;
28613;SDS011;15806;53.548;9.964;2024-02-28T00:41:20;39.77;;;15.50;;
28613;SDS011;15806;53.548;9.964;2024-02-28T00:43:00;41.13;;;15.73;;
28613;SDS011;15806;53.548;9.964;2024-02-28T00:44:41;39.97;;;15.60;;
28613;SDS011;15806;53.548;9.964;2024-02-28T00:46:21;37.07;;;13.20;;
28613;SDS011;15806;53.548;9.964;2024-02-28T00:48:02;38.20;;;14.23;;
28613;SDS011;15806;53.548;9.964;2024-02-28T00:49:42;39.60;;;14.80;;
28613;SDS011;15806;53.548;9.964;2024-02-28T00:51:23;42.77;;;16.03;;
28613;SDS011;15806;53.548;9.964;2024-02-28T00:53:03;39.00;;;14.27;;
28613;SDS011;15806;53.548;9.964;2024-02-28T00:54:44;42.47;;;15.10;;
28613;SDS011;15806;53.548;9.964;2024-02-28T00:56:24;42.87;;;15.50;;
28613;SDS011;15806;53.548;9.964;2024-02-28T00:58:05;39.53;;;14.67;;
28613;SDS011;15806;53.548;9.964;2024-02-28T00:59:45;39.63;;;15.17;;
28613;SDS011;15806;53.548;9.964;2024-02-28T01:01:26;40.23;;;13.90;;
28613;SDS011;15806;53.548;9.964;2024-02-28T01:03:06;40.40;;;15.10;;
28613;SDS011;15806;53.548;9.964;2024-02-28T01:04:47;38.83;;;13.83;;
28613;SDS011;15806;53.548;9.964;2024-02-28T01:06:27;38.57;;;13.57;;
28613;SDS011;15806;53.548;9.964;2024-02-28T01:08:08;38.40;;;14.13;;
28613;SDS011;15806;53.548;9.964;2024-02-28T01:09:48;37.57;;;13.43;;
28613;SDS011;15806;53.548;9.964;2024-02-28T01:11:29;39.20;;;14.30;;
28613;SDS011;15806;53.548;9.964;2024-02-28T01:13:09;41.27;;;15.07;;
28613;SDS011;15806;53.548;9.964;2024-02-28T01:14:50;38.23;;;13.83;;
28613;SDS011;15806;53.548;9.964;2024-02-28T01:16:30;39.27;;;14.30;;
28613;SDS011;15806;53.548;9.964;2024-02-28T01:18:11;34.87;;;12.77;;
28613;SDS011;15806;53.548;9.964;2024-02-28T01:19:51;38.13;;;14.30;;
28613;SDS011;15806;53.548;9.964;2024-02-28T01:21:31;42.03;;;15.93;;
28613;SDS011;15806;53.548;9.964;2024-02-28T01:23:12;39.23;;;14.63;;
28613;SDS011;15806;53.548;9.964;2024-02-28T01:24:53;40.53;;;14.90;;
28613;SDS011;15806;53.548;9.964;2024-02-28T01:26:33;43.30;;;14.83;;
28613;SDS011;15806;53.548;9.964;2024-02-28T01:28:14;37.60;;;14.10;;
28613;SDS011;15806;53.548;9.964;2024-02-28T01:29:54;42.27;;;14.57;;
28613;SDS011;15806;53.548;9.964;2024-02-28T01:31:35;43.90;;;15.47;;
28613;SDS011;15806;53.548;9.964;2024-02-28T01:33:15;35.73;;;13.57;;
28613;SDS011;15806;53.548;9.964;2024-02-28T01:34:56;37.30;;;13.43;;
28613;SDS011;15806;53.548;9.964;2024-02-28T01:36:36;42.70;;;13.77;;
28613;SDS011;15806;53.548;9.964;2024-02-28T01:38:17;33.30;;;10.57;;
28613;SDS011;15806;53.548;9.964;2024-02-28T01:39:57;42.17;;;13.80;;
28613;SDS011;15806;53.548;9.964;2024-02-28T01:41:38;41.67;;;14.40;;
28613;SDS011;15806;53.548;9.964;2024-02-28T01:43:19;42.03;;;13.87;;
28613;SDS011;15806;53.548;9.964;2024-02-28T01:44:59;39.25;;;13.15;;
28613;SDS011;15806;53.548;9.964;2024-02-28T01:46:40;42.87;;;14.00;;
28613;SDS011;15806;53.548;9.964;2024-02-28T01:48:20;42.57;;;13.57;;
28613;SDS011;15806;53.548;9.964;2024-02-28T01:50:01;39.00;;;13.10;;
28613;SDS011;15806;53.548;9.964;2024-02-28T01:51:41;36.17;;;12.77;;
28613;SDS011;15806;53.548;9.964;2024-02-28T01:53:24;38.88;;;13.68;;
28613;SDS011;15806;53.548;9.964;2024-02-28T01:55:05;40.33;;;13.52;;
28613;SDS011;15806;53.548;9.964;2024-02-28T01:56:46;35.67;;;12.20;;
28613;SDS011;15806;53.548;9.964;2024-02-28T01:58:27;36.60;;;12.37;;
28613;SDS011;15806;53.548;9.964;2024-02-28T02:00:07;39.10;;;12.67;;
28613;SDS011;15806;53.548;9.964;2024-02-28T02:01:48;36.35;;;12.38;;
28613;SDS011;15806;53.548;9.964;2024-02-28T02:03:29;41.10;;;12.63;;
28613;SDS011;15806;53.548;9.964;2024-02-28T02:05:09;37.97;;;13.03;;
28613;SDS011;15806;53.548;9.964;2024-02-28T02:06:50;38.20;;;12.83;;
28613;SDS011;15806;53.548;9.964;2024-02-28T02:08:31;35.97;;;12.65;;
28613;SDS011;15806;53.548;9.964;2024-02-28T02:10:12;36.50;;;12.20;;
28613;SDS011;15806;53.548;9.964;2024-02-28T02:11:53;34.27;;;13.13;;
28613;SDS011;15806;53.548;9.964;2024-02-28T02:13:33;31.30;;;11.07;;
28613;SDS011;15806;53.548;9.964;2024-02-28T02:15:14;37.97;;;12.83;;
28613;SDS011;15806;53.548;9.964;2024-02-28T02:16:54;38.17;;;12.80;;
28613;SDS011;15806;53.548;9.964;2024-02-28T02:18:35;38.57;;;12.53;;
28613;SDS011;15806;53.548;9.964;2024-02-28T02:20:15;43.60;;;13.80;;
28613;SDS011;15806;53.548;9.964;2024-02-28T02:21:57;41.95;;;13.38;;
28613;SDS011;15806;53.548;9.964;2024-02-28T02:23:38;32.60;;;11.63;;
28613;SDS011;15806;53.548;9.964;2024-02-28T02:25:19;44.00;;;14.30;;
28613;SDS011;15806;53.548;9.964;2024-02-28T02:27:00;38.77;;;12.50;;
28613;SDS011;15806;53.548;9.964;2024-02-28T02:28:42;36.45;;;12.10;;
28613;SDS011;15806;53.548;9.964;2024-02-28T02:30:22;37.93;;;12.10;;
28613;SDS011;15806;53.548;9.964;2024-02-28T02:32:03;36.27;;;11.50;;
28613;SDS011;15806;53.548;9.964;2024-02-28T02:33:43;35.13;;;11.80;;
28613;SDS011;15806;53.548;9.964;2024-02-28T02:35:24;38.03;;;11.30;;
28613;SDS011;15806;53.548;9.964;2024-02-28T02:37:04;37.90;;;12.70;;
28613;SDS011;15806;53.548;9.964;2024-02-28T02:38:45;34.83;;;11.53;;
28613;SDS011;15806;53.548;9.964;2024-02-28T02:40:25;38.33;;;11.70;;
28613;SDS011;15806;53.548;9.964;2024-02-28T02:42:06;35.97;;;11.85;;
28613;SDS011;15806;53.548;9.964;2024-02-28T02:43:46;34.47;;;10.83;;
28613;SDS011;15806;53.548;9.964;2024-02-28T02:45:27;32.70;;;11.17;;
28613;SDS011;15806;53.548;9.964;2024-02-28T02:47:07;35.43;;;11.20;;
28613;SDS011;15806;53.548;9.964;2024-02-28T02:48:48;38.80;;;12.43;;
28613;SDS011;15806;53.548;9.964;2024-02-28T02:50:29;40.00;;;11.60;;
28613;SDS011;15806;53.548;9.964;2024-02-28T02:52:09;36.40;;;11.40;;
28613;SDS011;15806;53.548;9.964;2024-02-28T02:53:49;35.50;;;10.47;;
28613;SDS011;15806;53.548;9.964;2024-02-28T02:55:30;39.47;;;12.33;;
28613;SDS011;15806;53.548;9.964;2024-02-28T02:57:10;37.47;;;11.00;;
28613;SDS011;15806;53.548;9.964;2024-02-28T02:58:51;34.77;;;11.03;;
28613;SDS011;15806;53.548;9.964;2024-02-28T03:00:31;36.40;;;10.97;;
28613;SDS011;15806;53.548;9.964;2024-02-28T03:02:12;36.53;;;11.40;;
28613;SDS011;15806;53.548;9.964;2024-02-28T03:03:52;33.80;;;10.77;;
28613;SDS011;15806;53.548;9.964;2024-02-28T03:05:33;32.37;;;10.87;;
28613;SDS011;15806;53.548;9.964;2024-02-28T03:07:13;42.73;;;12.30;;
28613;SDS011;15806;53.548;9.964;2024-02-28T03:08:54;33.73;;;11.23;;
28613;SDS011;15806;53.548;9.964;2024-02-28T03:10:34;41.00;;;12.97;;
28613;SDS011;15806;53.548;9.964;2024-02-28T03:12:15;40.63;;;12.93;;
28613;SDS011;15806;53.548;9.964;2024-02-28T03:13:55;35.40;;;11.70;;
28613;SDS011;15806;53.548;9.964;2024-02-28T03:15:36;34.17;;;10.83;;
28613;SDS011;15806;53.548;9.964;2024-02-28T03:17:16;36.07;;;12.47;;
28613;SDS011;15806;53.548;9.964;2024-02-28T03:18:57;37.17;;;13.40;;
28613;SDS011;15806;53.548;9.964;2024-02-28T03:20:37;34.20;;;10.80;;
28613;SDS011;15806;53.548;9.964;2024-02-28T03:22:18;37.30;;;11.43;;
28613;SDS011;15806;53.548;9.964;2024-02-28T03:23:58;32.73;;;10.60;;
28613;SDS011;15806;53.548;9.964;2024-02-28T03:25:39;34.30;;;10.80;;
28613;SDS011;15806;53.548;9.964;2024-02-28T03:27:19;36.07;;;10.27;;
28613;SDS011;15806;53.548;9.964;2024-02-28T03:29:00;35.40;;;11.73;;
28613;SDS011;15806;53.548;9.964;2024-02-28T03:30:40;36.03;;;11.53;;
28613;SDS011;15806;53.548;9.964;2024-02-28T03:32:21;38.50;;;11.43;;
28613;SDS011;15806;53.548;9.964;2024-02-28T03:34:01;32.37;;;9.60;;
28613;SDS011;15806;53.548;9.964;2024-02-28T03:35:42;40.23;;;11.77;;
28613;SDS011;15806;53.548;9.964;2024-02-28T03:37:22;39.43;;;11.00;;
28613;SDS011;15806;53.548;9.964;2024-02-28T03:39:03;35.57;;;11.83;;
28613;SDS011;15806;53.548;9.964;2024-02-28T03:40:43;33.07;;;9.80;;
28613;SDS011;15806;53.548;9.964;2024-02-28T03:42:24;34.93;;;11.47;;
28613;SDS011;15806;53.548;9.964;2024-02-28T03:44:04;31.57;;;9.87;;
28613;SDS011;15806;53.548;9.964;2024-02-28T03:45:45;33.75;;;10.38;;
28613;SDS011;15806;53.548;9.964;2024-02-28T03:47:26;33.33;;;11.60;;
28613;SDS011;15806;53.548;9.964;2024-02-28T03:49:06;32.40;;;10.50;;
28613;SDS011;15806;53.548;9.964;2024-02-28T03:50:47;31.33;;;9.47;;
28613;SDS011;15806;53.548;9.964;2024-02-28T03:52:27;32.10;;;10.37;;
28613;SDS011;15806;53.548;9.964;2024-02-28T03:54:08;32.47;;;10.70;;
28613;SDS011;15806;53.548;9.964;2024-02-28T03:55:49;36.28;;;9.88;;
28613;SDS011;15806;53.548;9.964;2024-02-28T03:57:30;36.22;;;11.80;;
28613;SDS011;15806;53.548;9.964;2024-02-28T03:59:11;34.33;;;10.70;;
28613;SDS011;15806;53.548;9.964;2024-02-28T04:00:51;35.20;;;10.70;;
28613;SDS011;15806;53.548;9.964;2024-02-28T04:02:32;32.43;;;10.33;;
28613;SDS011;15806;53.548;9.964;2024-02-28T04:04:12;35.17;;;11.47;;
28613;SDS011;15806;53.548;9.964;2024-02-28T04:05:53;35.67;;;11.23;;
28613;SDS011;15806;53.548;9.964;2024-02-28T04:07:33;35.90;;;11.03;;
28613;SDS011;15806;53.548;9.964;2024-02-28T04:09:14;32.13;;;10.07;;
28613;SDS011;15806;53.548;9.964;2024-02-28T04:10:54;32.70;;;10.20;;
28613;SDS011;15806;53.548;9.964;2024-02-28T04:12:35;34.93;;;10.07;;
28613;SDS011;15806;53.548;9.964;2024-02-28T04:14:15;35.00;;;11.53;;
28613;SDS011;15806;53.548;9.964;2024-02-28T04:15:56;36.90;;;9.83;;
28613;SDS011;15806;53.548;9.964;2024-02-28T04:17:36;31.03;;;9.87;;
28613;SDS011;15806;53.548;9.964;2024-02-28T04:19:17;34.90;;;10.37;;
28613;SDS011;15806;53.548;9.964;2024-02-28T04:20:57;29.83;;;9.37;;
28613;SDS011;15806;53.548;9.964;2024-02-28T04:22:38;33.63;;;11.30;;
28613;SDS011;15806;53.548;9.964;2024-02-28T04:24:19;32.60;;;10.57;;
28613;SDS011;15806;53.548;9.964;2024-02-28T04:25:59;38.50;;;12.77;;
28613;SDS011;15806;53.548;9.964;2024-02-28T04:27:40;34.37;;;11.13;;
28613;SDS011;15806;53.548;9.964;2024-02-28T04:29:20;36.03;;;12.13;;
28613;SDS011;15806;53.548;9.964;2024-02-28T04:31:01;34.47;;;10.30;;
28613;SDS011;15806;53.548;9.964;2024-02-28T04:32:42;30.37;;;9.87;;
28613;SDS011;15806;53.548;9.964;2024-02-28T04:34:22;39.60;;;11.03;;
28613;SDS011;15806;53.548;9.964;2024-02-28T04:36:03;37.73;;;11.00;;
28613;SDS011;15806;53.548;9.964;2024-02-28T04:37:44;29.80;;;10.18;;
28613;SDS011;15806;53.548;9.964;2024-02-28T04:39:25;35.50;;;11.88;;
28613;SDS011;15806;53.548;9.964;2024-02-28T04:41:06;30.50;;;10.03;;
28613;SDS011;15806;53.548;9.964;2024-02-28T04:42:46;28.23;;;9.33;;
28613;SDS011;15806;53.548;9.964;2024-02-28T04:44:27;34.77;;;10.60;;
28613;SDS011;15806;53.548;9.964;2024-02-28T04:46:07;36.80;;;11.07;;
28613;SDS011;15806;53.548;9.964;2024-02-28T04:47:48;27.10;;;8.37;;
28613;SDS011;15806;53.548;9.964;2024-02-28T04:49:28;32.83;;;10.13;;
28613;SDS011;15806;53.548;9.964;2024-02-28T04:51:09;32.53;;;10.43;;
28613;SDS011;15806;53.548;9.964;2024-02-28T04:52:49;30.27;;;10.17;;
28613;SDS011;15806;53.548;9.964;2024-02-28T04:54:30;34.40;;;10.47;;
28613;SDS011;15806;53.548;9.964;2024-02-28T04:56:10;34.50;;;11.93;;
28613;SDS011;15806;53.548;9.964;2024-02-28T04:57:51;33.27;;;10.67;;
28613;SDS011;15806;53.548;9.964;2024-02-28T04:59:31;36.13;;;10.23;;
28613;SDS011;15806;53.548;9.964;2024-02-28T05:01:12;33.57;;;9.47;;
28613;SDS011;15806;53.548;9.964;2024-02-28T05:02:52;38.53;;;11.17;;
28613;SDS011;15806;53.548;9.964;2024-02-28T05:04:33;42.27;;;11.80;;
28613;SDS011;15806;53.548;9.964;2024-02-28T05:06:13;29.83;;;10.10;;
28613;SDS011;15806;53.548;9.964;2024-02-28T05:07:54;35.03;;;10.87;;
28613;SDS011;15806;53.548;9.964;2024-02-28T05:09:34;39.33;;;11.50;;
28613;SDS011;15806;53.548;9.964;2024-02-28T05:11:15;35.93;;;10.53;;
28613;SDS011;15806;53.548;9.964;2024-02-28T05:12:55;29.60;;;9.47;;
28613;SDS011;15806;53.548;9.964;2024-02-28T05:14:36;35.90;;;10.53;;
28613;SDS011;15806;53.548;9.964;2024-02-28T05:16:16;33.80;;;11.73;;
28613;SDS011;15806;53.548;9.964;2024-02-28T05:17:57;33.87;;;10.33;;
28613;SDS011;15806;53.548;9.964;2024-02-28T05:19:38;36.67;;;11.47;;
28613;SDS011;15806;53.548;9.964;2024-02-28T05:21:19;35.28;;;9.38;;
28613;SDS011;15806;53.548;9.964;2024-02-28T05:23:00;42.00;;;11.95;;
28613;SDS011;15806;53.548;9.964;2024-02-28T05:24:40;37.43;;;10.47;;
28613;SDS011;15806;53.548;9.964;2024-02-28T05:26:21;33.73;;;11.27;;
28613;SDS011;15806;53.548;9.964;2024-02-28T05:28:01;37.63;;;12.17;;
28613;SDS011;15806;53.548;9.964;2024-02-28T05:29:42;38.00;;;11.70;;
28613;SDS011;15806;53.548;9.964;2024-02-28T05:31:23;39.27;;;11.47;;
28613;SDS011;15806;53.548;9.964;2024-02-28T05:33:04;38.55;;;11.93;;
28613;SDS011;15806;53.548;9.964;2024-02-28T05:34:45;40.43;;;11.87;;
28613;SDS011;15806;53.548;9.964;2024-02-28T05:36:26;35.70;;;12.13;;
28613;SDS011;15806;53.548;9.964;2024-02-28T05:38:08;38.22;;;11.15;;
28613;SDS011;15806;53.548;9.964;2024-02-28T05:39:49;34.60;;;11.83;;
28613;SDS011;15806;53.548;9.964;2024-02-28T05:41:29;38.07;;;12.43;;
28613;SDS011;15806;53.548;9.964;2024-02-28T05:43:10;35.00;;;11.10;;
28613;SDS011;15806;53.548;9.964;2024-02-28T05:44:50;37.07;;;12.03;;
28613;SDS011;15806;53.548;9.964;2024-02-28T05:46:31;33.87;;;11.97;;
28613;SDS011;15806;53.548;9.964;2024-02-28T05:48:11;36.27;;;12.33;;
28613;SDS011;15806;53.548;9.964;2024-02-28T05:49:52;33.80;;;11.73;;
28613;SDS011;15806;53.548;9.964;2024-02-28T05:51:32;39.43;;;11.87;;
28613;SDS011;15806;53.548;9.964;2024-02-28T05:53:13;36.50;;;11.23;;
28613;SDS011;15806;53.548;9.964;2024-02-28T05:54:53;39.30;;;12.57;;
28613;SDS011;15806;53.548;9.964;2024-02-28T05:56:34;36.67;;;11.67;;
28613;SDS011;15806;53.548;9.964;2024-02-28T05:58:14;31.67;;;10.93;;
28613;SDS011;15806;53.548;9.964;2024-02-28T05:59:55;34.97;;;11.97;;
28613;SDS011;15806;53.548;9.964;2024-02-28T06:01:35;30.40;;;11.07;;
28613;SDS011;15806;53.548;9.964;2024-02-28T06:03:16;34.07;;;11.67;;
28613;SDS011;15806;53.548;9.964;2024-02-28T06:04:56;30.87;;;11.23;;
28613;SDS011;15806;53.548;9.964;2024-02-28T06:06:37;33.23;;;9.63;;
28613;SDS011;15806;53.548;9.964;2024-02-28T06:08:17;32.17;;;11.10;;
28613;SDS011;15806;53.548;9.964;2024-02-28T06:09:58;32.87;;;11.47;;
28613;SDS011;15806;53.548;9.964;2024-02-28T06:11:38;32.77;;;9.90;;
28613;SDS011;15806;53.548;9.964;2024-02-28T06:13:19;28.43;;;10.67;;
28613;SDS011;15806;53.548;9.964;2024-02-28T06:14:59;26.77;;;8.87;;
28613;SDS011;15806;53.548;9.964;2024-02-28T06:16:40;30.07;;;9.87;;
28613;SDS011;15806;53.548;9.964;2024-02-28T06:18:20;30.70;;;10.10;;
28613;SDS011;15806;53.548;9.964;2024-02-28T06:20:01;26.37;;;9.37;;
28613;SDS011;15806;53.548;9.964;2024-02-28T06:21:41;30.60;;;10.33;;
28613;SDS011;15806;53.548;9.964;2024-02-28T06:23:22;27.20;;;9.63;;
28613;SDS011;15806;53.548;9.964;2024-02-28T06:25:03;25.83;;;9.50;;
28613;SDS011;15806;53.548;9.964;2024-02-28T06:26:44;23.13;;;9.30;;
28613;SDS011;15806;53.548;9.964;2024-02-28T06:28:24;32.23;;;10.50;;
28613;SDS011;15806;53.548;9.964;2024-02-28T06:30:06;22.20;;;8.80;;
28613;SDS011;15806;53.548;9.964;2024-02-28T06:33:31;24.58;;;8.95;;
28613;SDS011;15806;53.548;9.964;2024-02-28T06:35:11;24.67;;;8.63;;
28613;SDS011;15806;53.548;9.964;2024-02-28T06:36:52;24.60;;;8.80;;
28613;SDS011;15806;53.548;9.964;2024-02-28T06:38:32;25.67;;;8.67;;
28613;SDS011;15806;53.548;9.964;2024-02-28T06:40:13;25.03;;;9.10;;
28613;SDS011;15806;53.548;9.964;2024-02-28T06:41:53;28.67;;;9.17;;
28613;SDS011;15806;53.548;9.964;2024-02-28T06:43:34;33.30;;;10.47;;
28613;SDS011;15806;53.548;9.964;2024-02-28T06:45:14;26.97;;;9.30;;
28613;SDS011;15806;53.548;9.964;2024-02-28T06:46:55;23.07;;;8.93;;
28613;SDS011;15806;53.548;9.964;2024-02-28T06:48:35;25.57;;;8.90;;
28613;SDS011;15806;53.548;9.964;2024-02-28T06:50:16;24.93;;;8.67;;
28613;SDS011;15806;53.548;9.964;2024-02-28T06:51:57;24.50;;;9.37;;
28613;SDS011;15806;53.548;9.964;2024-02-28T06:53:37;19.07;;;7.43;;
28613;SDS011;15806;53.548;9.964;2024-02-28T06:55:17;25.93;;;9.63;;
28613;SDS011;15806;53.548;9.964;2024-02-28T06:56:58;29.77;;;8.90;;
28613;SDS011;15806;53.548;9.964;2024-02-28T06:58:38;23.47;;;8.87;;
28613;SDS011;15806;53.548;9.964;2024-02-28T07:00:19;25.17;;;9.17;;
28613;SDS011;15806;53.548;9.964;2024-02-28T07:02:00;24.83;;;8.33;;
28613;SDS011;15806;53.548;9.964;2024-02-28T07:03:40;25.87;;;8.57;;
28613;SDS011;15806;53.548;9.964;2024-02-28T07:05:21;24.90;;;9.27;;
28613;SDS011;15806;53.548;9.964;2024-02-28T07:07:04;23.52;;;8.85;;
28613;SDS011;15806;53.548;9.964;2024-02-28T07:08:44;25.80;;;9.07;;
28613;SDS011;15806;53.548;9.964;2024-02-28T07:10:25;25.17;;;8.63;;
28613;SDS011;15806;53.548;9.964;2024-02-28T07:12:05;23.63;;;8.73;;
28613;SDS011;15806;53.548;9.964;2024-02-28T07:13:46;24.80;;;9.77;;
28613;SDS011;15806;53.548;9.964;2024-02-28T07:15:26;29.97;;;9.33;;
28613;SDS011;15806;53.548;9.964;2024-02-28T07:17:07;27.97;;;9.30;;
28613;SDS011;15806;53.548;9.964;2024-02-28T07:18:47;22.23;;;8.63;;
28613;SDS011;15806;53.548;9.964;2024-02-28T07:20:28;21.30;;;7.60;;
28613;SDS011;15806;53.548;9.964;2024-02-28T07:22:08;24.10;;;9.20;;
28613;SDS011;15806;53.548;9.964;2024-02-28T07:23:49;22.23;;;8.87;;
28613;SDS011;15806;53.548;9.964;2024-02-28T07:25:29;29.00;;;9.10;;
28613;SDS011;15806;53.548;9.964;2024-02-28T07:27:10;22.30;;;8.13;;
28613;SDS011;15806;53.548;9.964;2024-02-28T07:28:50;23.57;;;8.27;;
28613;SDS011;15806;53.548;9.964;2024-02-28T07:30:31;24.47;;;8.93;;
28613;SDS011;15806;53.548;9.964;2024-02-28T07:32:11;23.10;;;8.77;;
28613;SDS011;15806;53.548;9.964;2024-02-28T07:33:52;21.37;;;8.50;;
28613;SDS011;15806;53.548;9.964;2024-02-28T07:35:32;23.20;;;8.63;;
28613;SDS011;15806;53.548;9.964;2024-02-28T07:37:23;25.58;;;8.68;;
28613;SDS011;15806;53.548;9.964;2024-02-28T07:39:03;26.63;;;7.13;;
28613;SDS011;15806;53.548;9.964;2024-02-28T07:40:44;33.00;;;9.50;;
28613;SDS011;15806;53.548;9.964;2024-02-28T07:42:24;22.97;;;8.60;;
28613;SDS011;15806;53.548;9.964;2024-02-28T07:44:05;26.83;;;9.03;;
28613;SDS011;15806;53.548;9.964;2024-02-28T07:45:45;24.10;;;9.43;;
28613;SDS011;15806;53.548;9.964;2024-02-28T07:47:26;32.80;;;9.03;;
28613;SDS011;15806;53.548;9.964;2024-02-28T07:49:07;25.50;;;8.43;;
28613;SDS011;15806;53.548;9.964;2024-02-28T07:50:48;24.50;;;10.13;;
28613;SDS011;15806;53.548;9.964;2024-02-28T07:52:28;26.07;;;9.30;;
28613;SDS011;15806;53.548;9.964;2024-02-28T07:54:09;29.47;;;9.73;;
28613;SDS011;15806;53.548;9.964;2024-02-28T07:55:49;25.53;;;9.13;;
28613;SDS011;15806;53.548;9.964;2024-02-28T07:57:30;28.07;;;10.13;;
28613;SDS011;15806;53.548;9.964;2024-02-28T07:59:11;33.92;;;9.95;;
28613;SDS011;15806;53.548;9.964;2024-02-28T08:00:52;29.07;;;9.50;;
28613;SDS011;15806;53.548;9.964;2024-02-28T08:02:33;29.73;;;9.35;;
28613;SDS011;15806;53.548;9.964;2024-02-28T08:04:13;31.57;;;11.17;;
28613;SDS011;15806;53.548;9.964;2024-02-28T08:05:54;38.03;;;10.83;;
28613;SDS011;15806;53.548;9.964;2024-02-28T08:07:34;34.67;;;11.10;;
28613;SDS011;15806;53.548;9.964;2024-02-28T08:09:14;31.53;;;11.07;;
28613;SDS011;15806;53.548;9.964;2024-02-28T08:10:55;32.77;;;10.40;;
28613;SDS011;15806;53.548;9.964;2024-02-28T08:12:36;30.77;;;11.10;;
28613;SDS011;15806;53.548;9.964;2024-02-28T08:14:16;33.27;;;12.17;;
28613;SDS011;15806;53.548;9.964;2024-02-28T08:15:57;28.77;;;9.83;;
28613;SDS011;15806;53.548;9.964;2024-02-28T08:17:37;33.83;;;12.63;;
28613;SDS011;15806;53.548;9.964;2024-02-28T08:19:18;39.10;;;13.47;;
28613;SDS011;15806;53.548;9.964;2024-02-28T08:20:59;43.27;;;13.33;;
28613;SDS011;15806;53.548;9.964;2024-02-28T08:22:39;35.40;;;12.38;;
28613;SDS011;15806;53.548;9.964;2024-02-28T08:24:20;36.50;;;12.13;;
28613;SDS011;15806;53.548;9.964;2024-02-28T08:26:00;41.70;;;12.53;;
28613;SDS011;15806;53.548;9.964;2024-02-28T08:27:41;38.67;;;13.67;;
28613;SDS011;15806;53.548;9.964;2024-02-28T08:29:21;37.57;;;13.27;;
28613;SDS011;15806;53.548;9.964;2024-02-28T08:31:02;34.57;;;13.37;;
28613;SDS011;15806;53.548;9.964;2024-02-28T08:32:43;43.47;;;14.10;;
28613;SDS011;15806;53.548;9.964;2024-02-28T08:34:23;46.23;;;15.90;;
28613;SDS011;15806;53.548;9.964;2024-02-28T08:36:04;43.93;;;14.47;;
28613;SDS011;15806;53.548;9.964;2024-02-28T08:37:45;42.47;;;13.63;;
28613;SDS011;15806;53.548;9.964;2024-02-28T08:39:25;47.77;;;15.10;;
28613;SDS011;15806;53.548;9.964;2024-02-28T08:41:06;42.00;;;15.03;;
28613;SDS011;15806;53.548;9.964;2024-02-28T08:42:47;44.60;;;15.40;;
28613;SDS011;15806;53.548;9.964;2024-02-28T08:44:27;38.40;;;13.50;;
28613;SDS011;15806;53.548;9.964;2024-02-28T08:46:08;42.87;;;14.77;;
28613;SDS011;15806;53.548;9.964;2024-02-28T08:47:53;42.55;;;15.38;;
28613;SDS011;15806;53.548;9.964;2024-02-28T08:49:34;41.03;;;13.97;;
28613;SDS011;15806;53.548;9.964;2024-02-28T08:51:14;39.33;;;15.17;;
28613;SDS011;15806;53.548;9.964;2024-02-28T08:52:55;45.47;;;16.97;;
28613;SDS011;15806;53.548;9.964;2024-02-28T08:54:35;41.77;;;14.77;;
28613;SDS011;15806;53.548;9.964;2024-02-28T08:56:16;47.17;;;17.10;;
28613;SDS011;15806;53.548;9.964;2024-02-28T08:57:56;45.80;;;14.57;;
28613;SDS011;15806;53.548;9.964;2024-02-28T08:59:37;40.23;;;14.23;;
28613;SDS011;15806;53.548;9.964;2024-02-28T09:01:17;43.57;;;15.40;;
28613;SDS011;15806;53.548;9.964;2024-02-28T09:02:58;41.13;;;14.77;;
28613;SDS011;15806;53.548;9.964;2024-02-28T09:04:38;43.43;;;15.50;;
28613;SDS011;15806;53.548;9.964;2024-02-28T09:06:19;37.20;;;13.33;;
28613;SDS011;15806;53.548;9.964;2024-02-28T09:07:59;43.40;;;14.40;;
28613;SDS011;15806;53.548;9.964;2024-02-28T09:09:41;39.70;;;14.53;;
28613;SDS011;15806;53.548;9.964;2024-02-28T09:11:22;39.05;;;13.55;;
28613;SDS011;15806;53.548;9.964;2024-02-28T09:13:03;41.17;;;13.47;;
28613;SDS011;15806;53.548;9.964;2024-02-28T09:14:43;39.77;;;14.40;;
28613;SDS011;15806;53.548;9.964;2024-02-28T09:16:24;38.20;;;14.07;;
28613;SDS011;15806;53.548;9.964;2024-02-28T09:18:04;36.50;;;12.70;;
28613;SDS011;15806;53.548;9.964;2024-02-28T09:19:45;46.97;;;15.50;;
28613;SDS011;15806;53.548;9.964;2024-02-28T09:21:25;37.43;;;14.23;;
28613;SDS011;15806;53.548;9.964;2024-02-28T09:23:06;36.87;;;13.60;;
28613;SDS011;15806;53.548;9.964;2024-02-28T09:24:47;44.27;;;14.93;;
28613;SDS011;15806;53.548;9.964;2024-02-28T09:26:27;38.23;;;13.97;;
28613;SDS011;15806;53.548;9.964;2024-02-28T09:28:08;34.47;;;13.33;;
28613;SDS011;15806;53.548;9.964;2024-02-28T09:29:48;36.83;;;14.47;;
28613;SDS011;15806;53.548;9.964;2024-02-28T09:31:28;40.00;;;14.53;;
28613;SDS011;15806;53.548;9.964;2024-02-28T09:33:09;35.23;;;13.20;;
28613;SDS011;15806;53.548;9.964;2024-02-28T09:34:50;39.90;;;15.60;;
28613;SDS011;15806;53.548;9.964;2024-02-28T09:36:30;37.47;;;13.50;;
28613;SDS011;15806;53.548;9.964;2024-02-28T09:38:11;36.77;;;13.07;;
28613;SDS011;15806;53.548;9.964;2024-02-28T09:39:51;35.97;;;12.47;;
28613;SDS011;15806;53.548;9.964;2024-02-28T09:41:32;39.60;;;13.63;;
28613;SDS011;15806;53.548;9.964;2024-02-28T09:43:15;34.33;;;12.07;;
28613;SDS011;15806;53.548;9.964;2024-02-28T09:45:00;34.20;;;12.63;;
28613;SDS011;15806;53.548;9.964;2024-02-28T09:46:41;28.80;;;11.65;;
28613;SDS011;15806;53.548;9.964;2024-02-28T09:48:21;34.50;;;12.53;;
28613;SDS011;15806;53.548;9.964;2024-02-28T09:50:03;32.33;;;12.18;;
28613;SDS011;15806;53.548;9.964;2024-02-28T09:51:44;31.10;;;10.18;;